Time;durP1;ratioP1;P1;durP2;ratioP2;P2;SDS_P1;SDS_P2;PMS_P1;PMS_P2;Temp;Humidity;BMP_temperature;BMP_pressure;BME280_temperature;BME280_humidity;BME280_pressure;Samples;Min_cycle;Max_cycle;Signal;HPM_P1;HPM_P2
2022/05/26 00:00:19;;;;;;;3.20;0.70;;;18.90;59.30;;;;;;4884160;29;20832;-72
2022/05/26 00:02:48;;;;;;;4.40;0.90;;;18.90;59.20;;;;;;4858534;29;20510;-72
2022/05/26 00:05:16;;;;;;;3.90;1.10;;;18.90;59.10;;;;;;4884829;29;20476;-72
2022/05/26 00:07:44;;;;;;;3.53;0.90;;;18.80;59.20;;;;;;4888680;29;20460;-71
2022/05/26 00:10:13;;;;;;;3.20;0.80;;;18.80;59.30;;;;;;4880160;29;20499;-72
2022/05/26 00:12:41;;;;;;;3.33;0.90;;;18.80;59.40;;;;;;4889135;29;20984;-72
2022/05/26 00:15:09;;;;;;;4.03;1.07;;;18.80;59.50;;;;;;4888127;29;20975;-73
2022/05/26 00:17:38;;;;;;;4.00;1.30;;;18.80;59.60;;;;;;4880357;29;20824;-72
2022/05/26 00:20:10;;;;;;;7.00;1.10;;;18.80;59.60;;;;;;4885095;29;20470;-72
2022/05/26 00:22:37;;;;;;;4.13;1.20;;;18.80;59.70;;;;;;4893005;29;20470;-72
2022/05/26 00:25:06;;;;;;;3.70;1.30;;;18.80;59.80;;;;;;4886663;29;20475;-71
2022/05/26 00:27:34;;;;;;;3.67;1.10;;;18.80;59.80;;;;;;4887248;29;20458;-72
2022/05/26 00:30:02;;;;;;;4.00;1.00;;;18.80;59.80;;;;;;4872391;29;20491;-71
2022/05/26 00:32:30;;;;;;;3.30;0.80;;;18.80;59.80;;;;;;4871083;29;20493;-72
2022/05/26 00:34:58;;;;;;;6.30;0.90;;;18.80;59.90;;;;;;4871156;29;20460;-72
2022/05/26 00:37:27;;;;;;;5.30;1.20;;;18.80;59.90;;;;;;4874327;29;20620;-72
2022/05/26 00:39:55;;;;;;;4.10;1.20;;;18.80;60.00;;;;;;4863990;29;20471;-72
2022/05/26 00:42:23;;;;;;;4.10;1.07;;;18.80;60.00;;;;;;4859815;29;20491;-73
2022/05/26 00:44:51;;;;;;;4.70;1.30;;;18.80;60.10;;;;;;4873695;29;20475;-71
2022/05/26 00:47:22;;;;;;;5.90;1.50;;;18.80;60.20;;;;;;4873395;29;21018;-72
2022/05/26 00:49:57;;;;;;;4.20;1.47;;;18.80;60.30;;;;;;4867492;29;21618;-72
2022/05/26 00:52:31;;;;;;;4.07;1.50;;;18.70;60.40;;;;;;4884881;29;20485;-73
2022/05/26 00:55:03;;;;;;;3.63;1.13;;;18.70;60.50;;;;;;4880203;29;20482;-72
2022/05/26 00:57:35;;;;;;;3.90;1.20;;;18.70;60.60;;;;;;4892520;29;20490;-74
2022/05/26 01:00:06;;;;;;;3.97;1.10;;;18.70;60.60;;;;;;4880432;29;20474;-73
2022/05/26 01:02:36;;;;;;;3.50;1.20;;;18.60;60.70;;;;;;4895621;29;20475;-73
2022/05/26 01:05:11;;;;;;;4.27;1.30;;;18.60;60.70;;;;;;4888782;29;20557;-72
2022/05/26 01:07:41;;;;;;;3.47;0.97;;;18.60;60.70;;;;;;4874326;29;20459;-72
2022/05/26 01:10:11;;;;;;;5.03;1.30;;;18.60;60.60;;;;;;4889974;29;21155;-72
2022/05/26 01:12:39;;;;;;;3.93;1.10;;;18.60;60.70;;;;;;4891847;29;20485;-72
2022/05/26 01:15:11;;;;;;;4.37;1.20;;;18.50;60.80;;;;;;4894933;29;20489;-72
2022/05/26 01:17:48;;;;;;;4.70;1.17;;;18.50;60.80;;;;;;4896041;29;20488;-72
2022/05/26 01:20:35;;;;;;;4.60;0.93;;;18.60;60.70;;;;;;4882923;29;20522;-72
2022/05/26 01:23:52;;;;;;;7.00;1.60;;;18.60;60.70;;;;;;4871988;29;20842;-75
2022/05/26 01:26:57;;;;;;;3.63;1.27;;;18.60;60.70;;;;;;4874187;29;20531;-72
2022/05/26 01:30:01;;;;;;;6.13;1.47;;;18.50;60.70;;;;;;4875112;29;20487;-72
2022/05/26 01:32:41;;;;;;;5.10;1.37;;;18.50;60.70;;;;;;4870652;29;20495;-71
2022/05/26 01:35:15;;;;;;;5.00;1.10;;;18.50;60.80;;;;;;4877158;29;20566;-73
2022/05/26 01:37:51;;;;;;;6.80;1.93;;;18.50;60.80;;;;;;4876403;29;20517;-72
2022/05/26 01:40:29;;;;;;;6.50;1.93;;;18.50;60.70;;;;;;4872936;29;20483;-71
2022/05/26 01:43:07;;;;;;;5.33;1.70;;;18.50;60.70;;;;;;4857124;29;20491;-72
2022/05/26 01:45:42;;;;;;;4.13;1.50;;;18.50;60.70;;;;;;4875736;29;20534;-72
2022/05/26 01:48:16;;;;;;;5.67;1.80;;;18.50;60.70;;;;;;4872105;29;20544;-72
2022/05/26 01:50:52;;;;;;;4.00;1.33;;;18.50;60.50;;;;;;4873954;29;20475;-72
2022/05/26 01:53:28;;;;;;;3.70;1.40;;;18.50;60.70;;;;;;4875548;29;20494;-72
2022/05/26 01:56:02;;;;;;;3.80;1.40;;;18.50;60.70;;;;;;4873511;29;20463;-72
2022/05/26 01:58:36;;;;;;;4.40;1.40;;;18.50;60.50;;;;;;4870451;29;20500;-73
2022/05/26 02:01:15;;;;;;;10.40;1.60;;;18.50;60.50;;;;;;4870579;29;20476;-72
2022/05/26 02:03:47;;;;;;;5.20;1.60;;;18.50;60.50;;;;;;4875499;29;20566;-72
2022/05/26 02:06:22;;;;;;;7.23;1.43;;;18.60;60.60;;;;;;4878823;29;20471;-72
2022/05/26 02:08:55;;;;;;;5.30;1.40;;;18.60;60.50;;;;;;4870823;29;20470;-72
2022/05/26 02:11:24;;;;;;;4.13;1.30;;;18.60;60.60;;;;;;4868596;29;20478;-71
2022/05/26 02:13:56;;;;;;;6.40;1.27;;;18.60;60.50;;;;;;4867930;29;20492;-73
2022/05/26 02:16:34;;;;;;;6.30;1.50;;;18.60;60.50;;;;;;4870170;29;20507;-72
2022/05/26 02:19:09;;;;;;;3.63;1.13;;;18.60;60.50;;;;;;4871495;29;20967;-72
2022/05/26 02:21:45;;;;;;;4.43;1.27;;;18.50;60.50;;;;;;4874575;29;20480;-72
2022/05/26 02:24:17;;;;;;;6.13;1.40;;;18.50;60.70;;;;;;4870765;29;20474;-72
2022/05/26 02:26:45;;;;;;;4.30;1.40;;;18.40;60.70;;;;;;4872761;29;20465;-72
2022/05/26 02:31:59;;;;;;;4.00;1.30;;;18.40;60.90;;;;;;4874306;29;20483;-73
2022/05/26 02:34:29;;;;;;;4.30;1.13;;;18.40;60.90;;;;;;4875185;29;20985;-72
2022/05/26 02:36:59;;;;;;;3.30;1.10;;;18.30;60.90;;;;;;4875711;29;21044;-73
2022/05/26 02:39:27;;;;;;;5.07;1.23;;;18.30;61.00;;;;;;4875717;29;20463;-72
2022/05/26 02:41:56;;;;;;;5.30;1.73;;;18.30;61.00;;;;;;4867744;29;21019;-72
2022/05/26 02:44:26;;;;;;;4.00;1.40;;;18.20;61.10;;;;;;4874600;29;20542;-72
2022/05/26 02:47:09;;;;;;;3.60;1.10;;;18.30;61.10;;;;;;4874845;29;20487;-72
2022/05/26 02:49:51;;;;;;;3.90;1.13;;;18.20;61.20;;;;;;4875659;29;20464;-72
2022/05/26 02:52:29;;;;;;;6.10;1.00;;;18.20;61.20;;;;;;4863543;29;20491;-72
2022/05/26 02:55:17;;;;;;;4.00;1.37;;;18.20;61.30;;;;;;4874378;29;20471;-72
2022/05/26 02:57:55;;;;;;;9.63;1.03;;;18.30;61.30;;;;;;4849337;29;20495;-72
2022/05/26 03:00:29;;;;;;;4.40;0.97;;;18.30;61.30;;;;;;4866519;29;20532;-72
2022/05/26 03:03:02;;;;;;;3.60;1.00;;;18.30;61.40;;;;;;4856858;29;20486;-72
2022/05/26 03:05:39;;;;;;;3.50;1.00;;;18.30;61.40;;;;;;4870682;29;20484;-73
2022/05/26 03:08:11;;;;;;;6.07;1.10;;;18.30;61.40;;;;;;4869082;29;20993;-72
2022/05/26 03:10:39;;;;;;;3.87;1.00;;;18.30;61.50;;;;;;4873534;29;20467;-72
2022/05/26 03:13:07;;;;;;;3.53;0.83;;;18.40;61.40;;;;;;4872841;29;20495;-72
2022/05/26 03:15:35;;;;;;;3.30;1.10;;;18.40;61.40;;;;;;4868767;29;20493;-72
2022/05/26 03:18:04;;;;;;;3.20;0.90;;;18.40;61.40;;;;;;4874550;29;20499;-72
2022/05/26 03:20:33;;;;;;;4.57;1.10;;;18.40;61.40;;;;;;4873100;29;20464;-72
2022/05/26 03:23:02;;;;;;;8.70;1.40;;;18.40;61.40;;;;;;4874932;29;20482;-72
2022/05/26 03:25:29;;;;;;;3.77;1.13;;;18.30;61.40;;;;;;4872465;29;20523;-72
2022/05/26 03:27:57;;;;;;;4.30;1.10;;;18.30;61.40;;;;;;4875241;29;20460;-72
2022/05/26 03:30:25;;;;;;;3.30;0.70;;;18.30;61.40;;;;;;4872382;29;20479;-72
2022/05/26 03:32:53;;;;;;;3.37;1.10;;;18.30;61.50;;;;;;4876039;29;20482;-72
2022/05/26 03:40:55;;;;;;;3.80;1.10;;;18.30;61.40;;;;;;4878441;29;20561;-72
2022/05/26 03:43:24;;;;;;;3.90;1.10;;;18.30;61.40;;;;;;4871186;29;20494;-72
2022/05/26 03:45:52;;;;;;;4.80;1.10;;;18.20;61.50;;;;;;4872439;29;20502;-72
2022/05/26 03:48:21;;;;;;;5.17;1.00;;;18.20;61.50;;;;;;4872793;29;20555;-72
2022/05/26 03:50:48;;;;;;;4.07;0.90;;;18.20;61.50;;;;;;4872223;29;20472;-72
2022/05/26 03:53:18;;;;;;;6.70;0.90;;;18.30;61.50;;;;;;4874621;29;20482;-72
2022/05/26 03:55:46;;;;;;;3.97;1.10;;;18.30;61.50;;;;;;4866316;29;20474;-72
2022/05/26 03:58:14;;;;;;;3.40;0.80;;;18.30;61.50;;;;;;4874819;29;20488;-72
2022/05/26 04:00:42;;;;;;;3.60;1.07;;;18.20;61.50;;;;;;4873248;29;20481;-72
2022/05/26 04:03:10;;;;;;;2.90;0.60;;;18.30;61.60;;;;;;4867694;29;20555;-72
2022/05/26 04:05:38;;;;;;;3.80;1.00;;;18.30;61.60;;;;;;4870346;29;20468;-72
2022/05/26 04:08:06;;;;;;;4.30;0.70;;;18.30;61.60;;;;;;4872976;29;20459;-72
2022/05/26 04:10:36;;;;;;;4.70;1.10;;;18.30;61.60;;;;;;4850552;29;20463;-72
2022/05/26 04:13:30;;;;;;;3.23;0.90;;;18.30;61.60;;;;;;4857392;29;20491;-72
2022/05/26 04:15:58;;;;;;;3.13;0.60;;;18.30;61.70;;;;;;4856656;29;20480;-72
2022/05/26 04:18:26;;;;;;;4.00;1.00;;;18.40;61.80;;;;;;4865671;29;20483;-72
2022/05/26 04:21:02;;;;;;;4.50;0.73;;;18.40;61.80;;;;;;4870940;29;20469;-72
2022/05/26 04:23:30;;;;;;;4.30;0.90;;;18.40;61.80;;;;;;4878665;29;20853;-72
2022/05/26 04:25:59;;;;;;;4.00;0.80;;;18.40;61.90;;;;;;4872333;29;20463;-73
2022/05/26 04:28:27;;;;;;;3.50;0.87;;;18.50;62.00;;;;;;4875132;29;20459;-72
2022/05/26 04:30:56;;;;;;;3.30;1.10;;;18.60;62.10;;;;;;4859402;29;20479;-72
2022/05/26 04:33:24;;;;;;;3.27;0.57;;;18.70;62.20;;;;;;4874521;29;20494;-72
2022/05/26 04:35:53;;;;;;;3.17;0.80;;;18.90;62.30;;;;;;4877330;29;20463;-73
2022/05/26 04:38:21;;;;;;;5.03;0.77;;;19.00;62.30;;;;;;4875549;29;22124;-72
2022/05/26 04:40:58;;;;;;;4.03;0.80;;;19.20;62.30;;;;;;4877475;29;20469;-72
2022/05/26 04:43:26;;;;;;;4.73;1.00;;;19.30;62.10;;;;;;4856756;29;20486;-72
2022/05/26 04:45:55;;;;;;;2.90;0.70;;;19.50;61.80;;;;;;4875433;29;20488;-72
2022/05/26 04:48:23;;;;;;;3.07;0.80;;;19.50;61.70;;;;;;4873222;29;22267;-73
2022/05/26 04:50:52;;;;;;;3.73;1.17;;;19.60;61.70;;;;;;4876849;29;20463;-71
2022/05/26 04:53:21;;;;;;;5.17;0.93;;;19.70;61.60;;;;;;4878699;29;20823;-71
2022/05/26 04:55:54;;;;;;;4.50;0.97;;;19.80;61.60;;;;;;4885563;29;20501;-73
2022/05/26 04:58:23;;;;;;;3.30;0.77;;;19.90;61.50;;;;;;4877569;29;20847;-72
2022/05/26 05:00:57;;;;;;;5.10;1.07;;;20.10;61.30;;;;;;4876763;29;20580;-72
2022/05/26 05:03:25;;;;;;;3.17;0.80;;;20.20;61.30;;;;;;4876431;29;20500;-74
2022/05/26 05:05:53;;;;;;;3.73;0.80;;;20.30;61.10;;;;;;4875441;29;20483;-73
2022/05/26 05:08:21;;;;;;;3.00;0.60;;;20.50;61.10;;;;;;4875756;29;20866;-72
2022/05/26 05:10:49;;;;;;;3.63;0.60;;;20.60;61.00;;;;;;4873028;29;20496;-73
2022/05/26 05:13:17;;;;;;;3.57;0.73;;;20.80;60.70;;;;;;4876396;29;20494;-72
2022/05/26 05:15:54;;;;;;;3.57;0.80;;;20.80;60.50;;;;;;4878345;29;20470;-71
2022/05/26 05:18:24;;;;;;;4.07;1.20;;;20.80;60.10;;;;;;4877030;29;20521;-73
2022/05/26 05:20:54;;;;;;;4.83;0.80;;;20.70;60.00;;;;;;4876717;29;20476;-72
2022/05/26 05:23:22;;;;;;;3.50;0.90;;;20.60;59.90;;;;;;4876662;29;20497;-71
2022/05/26 05:25:53;;;;;;;4.90;1.00;;;20.50;59.90;;;;;;4873333;29;20474;-72
2022/05/26 05:28:26;;;;;;;3.17;0.70;;;20.40;60.00;;;;;;4877356;29;20469;-72
2022/05/26 05:30:59;;;;;;;4.60;0.90;;;20.30;60.00;;;;;;4887884;29;20747;-73
2022/05/26 05:33:31;;;;;;;3.03;0.63;;;20.30;60.00;;;;;;4877874;29;20483;-71
2022/05/26 05:36:05;;;;;;;8.43;1.27;;;20.30;60.20;;;;;;4874317;29;20534;-71
2022/05/26 05:38:36;;;;;;;3.03;0.70;;;20.40;60.30;;;;;;4876563;29;20488;-73
2022/05/26 05:41:04;;;;;;;4.07;0.70;;;20.40;60.30;;;;;;4876926;29;20473;-72
2022/05/26 05:43:33;;;;;;;3.10;0.63;;;20.80;61.90;;;;;;4874901;29;20505;-71
2022/05/26 05:46:03;;;;;;;4.60;0.90;;;22.20;61.30;;;;;;4867392;29;20483;-71
2022/05/26 05:48:31;;;;;;;3.23;0.70;;;23.90;59.50;;;;;;4866845;29;21229;-71
2022/05/26 05:50:59;;;;;;;3.50;0.60;;;25.60;57.60;;;;;;4872795;29;20473;-72
2022/05/26 05:53:28;;;;;;;4.20;0.70;;;27.00;55.70;;;;;;4868915;29;20501;-73
2022/05/26 05:55:56;;;;;;;3.27;0.70;;;28.20;54.20;;;;;;4877143;29;20836;-71
2022/05/26 05:58:25;;;;;;;3.33;0.80;;;29.20;52.80;;;;;;4870177;29;20495;-71
2022/05/26 06:00:53;;;;;;;9.17;0.70;;;30.00;51.80;;;;;;4875549;29;20500;-73
2022/05/26 06:03:23;;;;;;;5.23;0.73;;;30.70;50.60;;;;;;4853357;29;21978;-71
2022/05/26 06:05:51;;;;;;;4.33;0.70;;;31.20;49.20;;;;;;4874428;29;20820;-72
2022/05/26 06:08:25;;;;;;;3.40;0.67;;;31.40;48.20;;;;;;4885125;29;21250;-73
2022/05/26 06:10:53;;;;;;;3.90;0.60;;;31.30;47.60;;;;;;4882027;29;20480;-72
2022/05/26 06:13:21;;;;;;;3.20;0.60;;;30.90;47.50;;;;;;4867337;29;20493;-71
2022/05/26 06:15:52;;;;;;;4.50;0.70;;;30.30;47.80;;;;;;4874862;29;20505;-71
2022/05/26 06:18:22;;;;;;;4.30;0.57;;;29.50;47.50;;;;;;4875229;29;20465;-71
2022/05/26 06:20:50;;;;;;;4.90;0.70;;;28.40;47.70;;;;;;4874725;29;20533;-73
2022/05/26 06:23:18;;;;;;;4.13;0.80;;;27.30;48.40;;;;;;4871999;29;20564;-73
2022/05/26 06:25:47;;;;;;;4.07;0.60;;;26.10;49.20;;;;;;4872046;29;21060;-71
2022/05/26 06:31:00;;;;;;;3.67;0.63;;;24.20;51.00;;;;;;4869536;29;20482;-72
2022/05/26 06:39:01;;;;;;;3.43;0.70;;;22.40;53.70;;;;;;4870157;29;20484;-72
2022/05/26 06:44:15;;;;;;;3.60;0.83;;;21.50;54.60;;;;;;4868353;29;20485;-71
2022/05/26 06:46:43;;;;;;;3.40;0.50;;;21.20;56.00;;;;;;4872444;29;20614;-73
2022/05/26 06:49:12;;;;;;;3.20;0.50;;;20.90;55.90;;;;;;4890524;29;20487;-72
2022/05/26 06:51:43;;;;;;;3.67;0.50;;;20.70;56.30;;;;;;4863189;29;20979;-72
2022/05/26 06:54:11;;;;;;;4.73;0.80;;;20.50;56.90;;;;;;4872204;29;20466;-72
2022/05/26 06:56:39;;;;;;;2.90;0.57;;;20.40;57.90;;;;;;4875165;29;20491;-72
2022/05/26 06:59:07;;;;;;;3.93;0.60;;;20.30;57.70;;;;;;4868279;29;20503;-72
2022/05/26 07:01:35;;;;;;;3.20;0.70;;;20.30;58.30;;;;;;4873770;29;20503;-72
2022/05/26 07:04:03;;;;;;;4.77;0.60;;;20.20;58.40;;;;;;4875854;29;20483;-72
2022/05/26 07:06:33;;;;;;;6.20;0.70;;;20.20;58.70;;;;;;4872468;29;20982;-72
2022/05/26 07:09:01;;;;;;;6.07;0.97;;;20.20;59.00;;;;;;4864309;29;20466;-72
2022/05/26 07:11:30;;;;;;;3.10;0.60;;;20.20;59.20;;;;;;4874081;29;20472;-72
2022/05/26 07:13:58;;;;;;;3.07;0.60;;;20.30;59.80;;;;;;4866756;29;21381;-72
2022/05/26 07:16:26;;;;;;;3.90;0.80;;;20.30;59.60;;;;;;4865167;29;20517;-72
2022/05/26 07:18:55;;;;;;;3.87;0.67;;;20.30;59.80;;;;;;4873628;29;20458;-71
2022/05/26 07:21:23;;;;;;;4.13;0.67;;;20.30;59.90;;;;;;4875268;29;20464;-72
2022/05/26 07:23:53;;;;;;;3.60;0.73;;;20.30;60.00;;;;;;4879381;29;20458;-71
2022/05/26 07:26:21;;;;;;;3.23;0.70;;;20.30;60.10;;;;;;4873583;29;20496;-72
2022/05/26 07:28:51;;;;;;;2.80;0.50;;;20.40;60.30;;;;;;4879619;29;20476;-71
2022/05/26 07:31:19;;;;;;;2.90;0.50;;;20.40;60.30;;;;;;4877916;29;20490;-71
2022/05/26 07:33:48;;;;;;;2.90;0.50;;;20.40;60.40;;;;;;4879887;29;21010;-71
2022/05/26 07:41:58;;;;;;;4.30;0.70;;;20.40;60.70;;;;;;4822222;29;20502;-71
2022/05/26 07:44:28;;;;;;;3.20;0.50;;;20.40;61.00;;;;;;4870650;29;21021;-71
2022/05/26 07:46:56;;;;;;;3.17;0.43;;;20.30;60.90;;;;;;4873511;29;20482;-71
2022/05/26 07:49:24;;;;;;;3.10;0.53;;;20.30;61.00;;;;;;4872592;29;20479;-71
2022/05/26 07:51:52;;;;;;;3.00;0.53;;;20.30;61.20;;;;;;4866650;29;22772;-71
2022/05/26 07:54:22;;;;;;;3.20;0.60;;;20.40;61.20;;;;;;4864585;29;20506;-71
2022/05/26 07:56:50;;;;;;;3.00;0.50;;;20.40;61.20;;;;;;4867665;29;20478;-71
2022/05/26 07:59:18;;;;;;;3.73;0.57;;;20.30;61.20;;;;;;4867690;29;20478;-71
2022/05/26 08:01:48;;;;;;;3.87;0.50;;;20.30;61.30;;;;;;4863382;29;20496;-71
2022/05/26 08:04:16;;;;;;;2.90;0.47;;;20.30;61.40;;;;;;4869840;29;20480;-71
2022/05/26 08:06:46;;;;;;;3.10;0.60;;;20.30;61.40;;;;;;4853961;29;20465;-72
2022/05/26 08:09:15;;;;;;;2.80;0.50;;;20.30;61.50;;;;;;4868040;29;20474;-72
2022/05/26 08:11:45;;;;;;;2.80;0.50;;;20.20;61.60;;;;;;4876745;29;20840;-72
2022/05/26 08:14:13;;;;;;;3.30;0.60;;;20.20;61.80;;;;;;4874390;29;20487;-72
2022/05/26 08:16:41;;;;;;;3.33;0.60;;;20.20;61.80;;;;;;4868615;29;20519;-72
2022/05/26 08:19:10;;;;;;;5.97;0.70;;;20.20;61.90;;;;;;4870744;29;20460;-72
2022/05/26 08:21:38;;;;;;;2.90;0.50;;;20.20;62.00;;;;;;4870633;29;20882;-72
2022/05/26 08:24:07;;;;;;;5.17;0.60;;;20.20;62.10;;;;;;4873188;29;20471;-72
2022/05/26 08:26:35;;;;;;;3.20;0.50;;;20.30;62.10;;;;;;4877793;29;20808;-73
2022/05/26 08:29:04;;;;;;;3.47;0.90;;;20.20;62.00;;;;;;4882654;29;20471;-72
2022/05/26 08:31:32;;;;;;;2.83;0.57;;;20.20;62.20;;;;;;4877719;29;20481;-73
2022/05/26 08:34:00;;;;;;;3.00;0.70;;;20.20;62.30;;;;;;4880433;29;20468;-72
2022/05/26 08:36:28;;;;;;;2.90;0.60;;;20.20;62.90;;;;;;4882114;29;20533;-72
2022/05/26 08:38:56;;;;;;;2.80;0.53;;;20.20;62.60;;;;;;4882987;29;20464;-72
2022/05/26 08:41:28;;;;;;;4.07;0.97;;;20.20;62.50;;;;;;4878214;29;20510;-72
2022/05/26 08:43:59;;;;;;;3.30;0.83;;;20.10;62.60;;;;;;4881272;29;20459;-72
2022/05/26 08:46:47;;;;;;;3.50;0.70;;;20.10;62.70;;;;;;4862988;29;20490;-72
2022/05/26 08:49:24;;;;;;;3.70;0.90;;;20.10;62.80;;;;;;4888920;29;20808;-72
2022/05/26 08:51:57;;;;;;;3.70;0.70;;;20.10;62.80;;;;;;4887585;29;21003;-72
2022/05/26 08:54:28;;;;;;;3.23;0.60;;;20.20;62.90;;;;;;4879455;29;20463;-72
2022/05/26 08:56:57;;;;;;;4.13;0.60;;;20.20;63.00;;;;;;4881525;29;20488;-72
2022/05/26 08:59:33;;;;;;;3.73;0.60;;;20.20;63.10;;;;;;4854569;29;20461;-72
2022/05/26 09:02:04;;;;;;;2.90;0.67;;;20.30;63.20;;;;;;4872255;29;21582;-72
2022/05/26 09:04:32;;;;;;;3.90;0.70;;;20.30;63.20;;;;;;4872761;29;20468;-72
2022/05/26 09:12:59;;;;;;;3.73;0.70;;;20.40;62.80;;;;;;4888072;29;20506;-73
2022/05/26 09:15:28;;;;;;;3.10;0.63;;;20.30;62.60;;;;;;4880027;29;20487;-72
2022/05/26 09:17:58;;;;;;;5.20;0.70;;;20.20;62.70;;;;;;4866477;29;20559;-72
2022/05/26 09:20:34;;;;;;;3.00;0.70;;;20.20;62.80;;;;;;4880340;29;20493;-72
2022/05/26 09:23:15;;;;;;;3.83;0.70;;;20.30;62.90;;;;;;4877342;29;20497;-73
2022/05/26 09:25:47;;;;;;;3.93;1.00;;;20.30;62.80;;;;;;4878237;29;20470;-72
2022/05/26 09:28:28;;;;;;;5.13;1.20;;;20.30;62.80;;;;;;4879102;29;20471;-72
2022/05/26 09:30:56;;;;;;;4.20;0.80;;;20.30;62.70;;;;;;4881328;29;20503;-72
2022/05/26 09:33:31;;;;;;;4.43;1.10;;;20.30;62.70;;;;;;4881014;29;20477;-73
2022/05/26 09:36:25;;;;;;;3.10;0.50;;;20.20;62.60;;;;;;4878012;29;20497;-72
2022/05/26 09:38:53;;;;;;;3.37;0.70;;;20.20;62.70;;;;;;4882490;29;20462;-72
2022/05/26 09:41:21;;;;;;;3.27;0.70;;;20.20;62.90;;;;;;4880065;29;20491;-72
2022/05/26 09:43:52;;;;;;;4.23;0.80;;;20.20;62.90;;;;;;4882410;29;20541;-72
2022/05/26 09:46:25;;;;;;;3.77;0.53;;;20.30;62.80;;;;;;4880768;29;20485;-73
2022/05/26 09:48:59;;;;;;;3.47;0.77;;;20.30;62.80;;;;;;4879763;29;20538;-72
2022/05/26 09:51:33;;;;;;;3.47;0.50;;;20.30;62.70;;;;;;4879828;29;21192;-72
2022/05/26 09:54:21;;;;;;;4.40;0.83;;;20.30;62.60;;;;;;4880012;29;20464;-73
2022/05/26 09:56:49;;;;;;;5.73;0.87;;;20.30;62.80;;;;;;4871953;29;20480;-72
2022/05/26 09:59:26;;;;;;;4.30;0.80;;;20.30;62.90;;;;;;4873288;29;20465;-73
2022/05/26 10:01:59;;;;;;;4.27;0.70;;;20.40;63.00;;;;;;4885411;29;20496;-73
2022/05/26 10:04:52;;;;;;;3.00;0.57;;;20.40;63.10;;;;;;4877240;29;20471;-72
2022/05/26 10:07:26;;;;;;;3.07;0.67;;;20.50;63.20;;;;;;4875552;29;20462;-72
2022/05/26 10:10:02;;;;;;;3.20;0.60;;;20.50;63.10;;;;;;4879443;29;20821;-71
2022/05/26 10:12:42;;;;;;;3.83;0.60;;;20.60;63.00;;;;;;4871414;29;20489;-72
2022/05/26 10:15:22;;;;;;;3.90;0.87;;;20.60;62.70;;;;;;4879971;29;20465;-73
2022/05/26 10:18:24;;;;;;;3.60;0.77;;;20.60;62.80;;;;;;4878668;29;20493;-72
2022/05/26 10:21:00;;;;;;;3.97;0.63;;;20.70;62.70;;;;;;4875771;29;20484;-73
2022/05/26 10:23:47;;;;;;;3.30;0.60;;;20.80;62.50;;;;;;4875270;29;20480;-71
2022/05/26 10:26:26;;;;;;;2.93;0.60;;;20.80;62.50;;;;;;4875561;29;20457;-72
2022/05/26 10:29:17;;;;;;;4.07;0.77;;;20.90;62.20;;;;;;4878725;29;20467;-72
2022/05/26 10:31:58;;;;;;;5.63;0.73;;;20.90;62.20;;;;;;4872284;29;20494;-73
2022/05/26 10:34:36;;;;;;;4.60;0.60;;;20.90;62.10;;;;;;4875860;29;20461;-73
2022/05/26 10:37:14;;;;;;;2.90;0.50;;;20.90;62.00;;;;;;4876663;29;20469;-73
2022/05/26 10:40:01;;;;;;;3.50;0.70;;;20.90;61.60;;;;;;4876792;29;20475;-73
2022/05/26 10:42:32;;;;;;;3.73;0.70;;;20.90;61.80;;;;;;4875658;29;20506;-73
2022/05/26 10:45:09;;;;;;;3.40;0.90;;;20.90;61.80;;;;;;4875656;29;20856;-73
2022/05/26 10:47:44;;;;;;;2.93;0.67;;;20.90;61.90;;;;;;4878485;29;20486;-72
2022/05/26 10:50:25;;;;;;;4.30;1.37;;;20.90;61.80;;;;;;4870153;29;20480;-72
2022/05/26 10:53:02;;;;;;;5.00;0.77;;;20.90;61.80;;;;;;4884814;29;20492;-73
2022/05/26 10:55:40;;;;;;;3.67;0.80;;;20.90;61.40;;;;;;4895263;29;20543;-73
2022/05/26 10:58:16;;;;;;;3.10;0.70;;;20.80;61.10;;;;;;4880551;29;20471;-72
2022/05/26 11:00:49;;;;;;;3.17;0.70;;;20.80;61.30;;;;;;4874055;29;20495;-73
2022/05/26 11:03:24;;;;;;;4.70;0.60;;;20.80;61.30;;;;;;4874483;29;20503;-71
2022/05/26 11:05:58;;;;;;;3.00;0.60;;;20.90;61.30;;;;;;4885212;29;20866;-73
2022/05/26 11:08:36;;;;;;;3.60;0.50;;;20.90;60.90;;;;;;4893465;29;20458;-72
2022/05/26 11:11:10;;;;;;;3.30;0.80;;;20.90;60.70;;;;;;4877245;29;20956;-72
2022/05/26 11:13:45;;;;;;;3.90;0.57;;;20.80;60.60;;;;;;4882179;29;20488;-73
2022/05/26 11:19:29;;;;;;;3.57;0.70;;;20.70;60.60;;;;;;4858804;29;20994;-73
2022/05/26 11:21:57;;;;;;;3.27;0.80;;;20.70;60.40;;;;;;4887943;29;20495;-72
2022/05/26 11:24:26;;;;;;;5.37;0.60;;;20.70;60.40;;;;;;4886786;29;20470;-72
2022/05/26 11:26:59;;;;;;;3.60;0.77;;;20.60;60.40;;;;;;4894536;29;20454;-73
2022/05/26 11:29:31;;;;;;;3.83;0.80;;;20.60;60.70;;;;;;4894792;29;20443;-73
2022/05/26 11:38:06;;;;;;;3.20;0.80;;;20.70;60.90;;;;;;4872262;29;20532;-73
2022/05/26 11:40:44;;;;;;;3.83;0.77;;;20.70;61.20;;;;;;4889697;29;20895;-73
2022/05/26 11:43:12;;;;;;;5.63;0.40;;;20.70;61.20;;;;;;4884338;29;20576;-74
2022/05/26 11:45:50;;;;;;;3.80;1.00;;;20.80;61.40;;;;;;4891934;29;20549;-73
2022/05/26 11:48:54;;;;;;;4.07;0.90;;;20.80;61.50;;;;;;4888133;29;20466;-73
2022/05/26 11:51:31;;;;;;;3.50;0.60;;;20.80;61.70;;;;;;4886610;29;20480;-73
2022/05/26 11:54:00;;;;;;;3.10;0.73;;;20.90;62.00;;;;;;4878337;29;20477;-73
2022/05/26 11:56:46;;;;;;;3.30;0.60;;;20.90;62.00;;;;;;4892427;29;20454;-73
2022/05/26 11:59:26;;;;;;;4.70;0.70;;;21.00;61.90;;;;;;4884299;29;20460;-73
2022/05/26 12:02:30;;;;;;;4.30;0.83;;;21.10;61.90;;;;;;4893503;29;20492;-73
2022/05/26 12:05:37;;;;;;;3.73;0.97;;;21.10;62.20;;;;;;4885487;29;21008;-73
2022/05/26 12:08:23;;;;;;;4.43;1.03;;;21.10;62.30;;;;;;4874394;29;20498;-73
2022/05/26 12:10:53;;;;;;;3.33;0.80;;;21.20;62.20;;;;;;4894091;29;20517;-73
2022/05/26 12:13:41;;;;;;;3.37;0.67;;;21.20;62.20;;;;;;4873965;29;20493;-73
2022/05/26 12:16:23;;;;;;;4.90;0.90;;;21.30;62.10;;;;;;4884339;29;20478;-74
2022/05/26 12:18:56;;;;;;;3.37;0.90;;;21.30;62.10;;;;;;4894437;29;20454;-73
2022/05/26 12:21:47;;;;;;;4.40;0.73;;;21.30;62.00;;;;;;4894573;29;20469;-73
2022/05/26 12:24:58;;;;;;;3.63;0.77;;;21.30;61.90;;;;;;4878074;29;20834;-73
2022/05/26 12:28:02;;;;;;;4.53;0.90;;;21.20;61.90;;;;;;4887592;29;20458;-73
2022/05/26 12:30:42;;;;;;;3.03;0.70;;;21.20;61.80;;;;;;4883441;29;20485;-73
2022/05/26 12:33:30;;;;;;;5.23;1.07;;;21.10;61.80;;;;;;4870847;29;20622;-73
2022/05/26 12:36:07;;;;;;;3.57;0.90;;;21.10;61.80;;;;;;4878521;29;20456;-74
2022/05/26 12:38:49;;;;;;;3.13;0.80;;;21.10;61.70;;;;;;4891869;29;20462;-73
2022/05/26 12:41:28;;;;;;;3.30;1.00;;;21.00;61.80;;;;;;4886215;29;20462;-72
2022/05/26 12:44:23;;;;;;;3.20;0.80;;;21.00;61.90;;;;;;4887783;29;20497;-72
2022/05/26 12:47:03;;;;;;;4.90;0.90;;;21.00;62.10;;;;;;4890211;29;20500;-72
2022/05/26 12:49:53;;;;;;;3.97;0.90;;;20.90;62.00;;;;;;4893881;29;20450;-72
2022/05/26 12:52:31;;;;;;;3.30;1.20;;;20.90;62.10;;;;;;4890146;29;20475;-72
2022/05/26 12:55:16;;;;;;;3.60;0.77;;;21.00;62.20;;;;;;4883249;29;20487;-73
2022/05/26 12:57:52;;;;;;;2.97;0.70;;;21.00;62.10;;;;;;4881905;29;20480;-72
2022/05/26 13:00:31;;;;;;;3.47;0.80;;;21.00;62.00;;;;;;4896933;29;20457;-73
2022/05/26 13:03:03;;;;;;;3.10;0.70;;;21.00;62.00;;;;;;4882145;29;20496;-73
2022/05/26 13:05:34;;;;;;;4.13;1.07;;;20.90;62.00;;;;;;4894770;29;20459;-73
2022/05/26 13:08:04;;;;;;;3.83;0.80;;;21.00;62.10;;;;;;4888493;29;20469;-73
2022/05/26 13:10:36;;;;;;;5.80;1.00;;;21.00;62.10;;;;;;4897362;29;20467;-73
2022/05/26 13:13:12;;;;;;;3.57;0.97;;;21.00;62.50;;;;;;4886970;29;20482;-72
2022/05/26 13:15:40;;;;;;;6.27;2.13;;;21.10;62.70;;;;;;4891586;29;20885;-73
2022/05/26 13:18:17;;;;;;;3.30;0.90;;;21.20;63.10;;;;;;4884039;29;20870;-72
2022/05/26 13:20:45;;;;;;;3.70;1.17;;;21.30;62.90;;;;;;4884073;29;20849;-73
2022/05/26 13:23:30;;;;;;;3.80;1.30;;;21.30;62.80;;;;;;4889043;29;20493;-73
2022/05/26 13:26:00;;;;;;;5.00;1.20;;;21.30;62.70;;;;;;4896920;29;20463;-73
2022/05/26 13:28:37;;;;;;;4.07;1.13;;;21.30;62.70;;;;;;4893965;29;20465;-71
2022/05/26 13:34:11;;;;;;;3.40;1.03;;;21.30;62.60;;;;;;4886930;29;20481;-72
2022/05/26 13:36:45;;;;;;;4.53;1.10;;;21.30;62.60;;;;;;4896615;29;20451;-72
2022/05/26 13:39:16;;;;;;;4.17;1.20;;;21.20;62.60;;;;;;4896897;29;20457;-72
2022/05/26 13:41:45;;;;;;;4.77;1.27;;;21.20;62.50;;;;;;4887364;29;20470;-71
2022/05/26 13:44:16;;;;;;;4.37;1.20;;;21.20;62.30;;;;;;4892169;29;20494;-72
2022/05/26 13:46:48;;;;;;;4.97;1.33;;;21.10;62.40;;;;;;4884179;29;20844;-72
2022/05/26 13:49:31;;;;;;;3.37;0.90;;;21.10;62.50;;;;;;4896395;29;20524;-73
2022/05/26 13:52:05;;;;;;;3.80;1.17;;;21.20;62.50;;;;;;4896343;29;20476;-72
2022/05/26 13:54:38;;;;;;;3.57;1.13;;;21.20;62.40;;;;;;4893150;29;20476;-73
2022/05/26 13:57:18;;;;;;;6.17;1.30;;;21.30;62.30;;;;;;4890385;29;20510;-73
2022/05/26 13:59:48;;;;;;;4.60;1.10;;;21.40;62.30;;;;;;4891446;29;20467;-73
2022/05/26 14:02:23;;;;;;;3.40;1.20;;;21.40;62.40;;;;;;4895476;29;20497;-73